Time;durP1;ratioP1;P1;durP2;ratioP2;P2;SDS_P1;SDS_P2;PMS_P1;PMS_P2;Temp;Humidity;BMP_temperature;BMP_pressure;BME280_temperature;BME280_humidity;BME280_pressure;Samples;Min_cycle;Max_cycle;Signal;HPM_P1;HPM_P2
2023/07/19 00:01:08;;;;;;;11.65;6.07;;;;;;;;;;6345439;22;20419;-96
2023/07/19 00:03:38;;;;;;;10.15;6.50;;;;;;;;;;6346114;22;20093;-94
2023/07/19 00:06:10;;;;;;;11.02;7.10;;;;;;;;;;6345197;22;20002;-96
2023/07/19 00:08:39;;;;;;;9.00;6.65;;;;;;;;;;6345128;22;20471;-96
2023/07/19 00:11:08;;;;;;;9.00;6.03;;;;;;;;;;6345392;22;20052;-96
2023/07/19 00:13:37;;;;;;;10.02;7.03;;;;;;;;;;6345476;22;20002;-96
2023/07/19 00:16:06;;;;;;;11.48;7.30;;;;;;;;;;6345585;22;20006;-96
2023/07/19 00:18:32;;;;;;;9.70;6.85;;;;;;;;;;6345896;22;19995;-96
2023/07/19 00:21:08;;;;;;;10.95;6.72;;;;;;;;;;6345572;22;20006;-96
2023/07/19 00:23:43;;;;;;;17.15;7.40;;;;;;;;;;6345768;22;20014;-96
2023/07/19 00:26:12;;;;;;;12.50;6.90;;;;;;;;;;6346633;22;20002;-96
2023/07/19 00:28:41;;;;;;;10.80;6.63;;;;;;;;;;6346996;22;20030;-96
2023/07/19 00:31:07;;;;;;;10.55;6.30;;;;;;;;;;6346763;22;20002;-95
2023/07/19 00:33:33;;;;;;;9.85;6.97;;;;;;;;;;6347247;22;20007;-96
2023/07/19 00:36:02;;;;;;;10.60;6.88;;;;;;;;;;6347704;22;20006;-95
2023/07/19 00:38:28;;;;;;;9.43;6.30;;;;;;;;;;6347211;22;20081;-96
2023/07/19 00:40:57;;;;;;;9.20;6.95;;;;;;;;;;6345800;22;19999;-96
2023/07/19 00:43:29;;;;;;;10.27;6.63;;;;;;;;;;6353135;22;20014;-96
2023/07/19 00:46:08;;;;;;;14.23;7.00;;;;;;;;;;6328850;22;20010;-95
2023/07/19 00:48:34;;;;;;;14.00;7.60;;;;;;;;;;6332602;22;20008;-96
2023/07/19 00:51:03;;;;;;;12.00;7.50;;;;;;;;;;6325659;22;20007;-96
2023/07/19 00:53:33;;;;;;;10.80;6.43;;;;;;;;;;6309288;22;20003;-96
2023/07/19 00:56:02;;;;;;;11.88;6.47;;;;;;;;;;6309025;22;20003;-94
2023/07/19 00:58:28;;;;;;;10.32;6.18;;;;;;;;;;6307993;22;20074;-95
2023/07/19 01:01:01;;;;;;;14.50;6.30;;;;;;;;;;6307835;22;20504;-96
2023/07/19 01:03:30;;;;;;;11.15;6.93;;;;;;;;;;6308372;22;20011;-95
2023/07/19 01:06:04;;;;;;;13.65;6.20;;;;;;;;;;6308063;22;20003;-94
2023/07/19 01:08:34;;;;;;;14.10;7.55;;;;;;;;;;6308650;22;20007;-96
2023/07/19 01:11:04;;;;;;;11.65;7.20;;;;;;;;;;6307925;22;20003;-95
2023/07/19 01:13:33;;;;;;;12.50;7.70;;;;;;;;;;6308339;22;20007;-95
2023/07/19 01:16:05;;;;;;;9.57;6.47;;;;;;;;;;6309296;22;20007;-96
2023/07/19 01:18:38;;;;;;;13.55;6.55;;;;;;;;;;6309517;22;20425;-94
2023/07/19 01:21:16;;;;;;;12.80;6.82;;;;;;;;;;6308918;22;20030;-95
2023/07/19 01:23:45;;;;;;;10.55;7.05;;;;;;;;;;6308599;22;20015;-95
2023/07/19 01:32:20;;;;;;;12.65;7.53;;;;;;;;;;6382215;22;20030;-96
2023/07/19 01:35:12;;;;;;;9.98;7.00;;;;;;;;;;6346123;22;20082;-93
2023/07/19 01:40:44;;;;;;;11.48;7.32;;;;;;;;;;6366259;22;20510;-96
2023/07/19 01:43:10;;;;;;;11.38;7.53;;;;;;;;;;6344443;22;20010;-96
2023/07/19 01:45:43;;;;;;;10.45;6.82;;;;;;;;;;6346736;22;20483;-96
2023/07/19 01:48:12;;;;;;;13.48;8.00;;;;;;;;;;6353400;22;20013;-96
2023/07/19 01:50:45;;;;;;;14.07;8.15;;;;;;;;;;6354080;22;20002;-94
2023/07/19 01:53:14;;;;;;;;;;;;;;;;;;6346311;22;20010;-95
2023/07/19 01:55:46;;;;;;;11.65;7.53;;;;;;;;;;6344486;22;19933;-95
2023/07/19 02:01:12;;;;;;;15.63;7.38;;;;;;;;;;6371808;22;20013;-96
2023/07/19 02:03:38;;;;;;;13.32;7.72;;;;;;;;;;6344200;22;20037;-95
2023/07/19 02:06:07;;;;;;;13.77;8.45;;;;;;;;;;6343845;22;19998;-95
2023/07/19 02:08:36;;;;;;;12.43;7.03;;;;;;;;;;6343997;22;19998;-96
2023/07/19 02:11:02;;;;;;;13.85;8.00;;;;;;;;;;6344114;22;20376;-96
2023/07/19 02:13:35;;;;;;;14.32;7.95;;;;;;;;;;6344067;22;20370;-93
2023/07/19 02:16:07;;;;;;;9.88;7.50;;;;;;;;;;6344215;22;20081;-96
2023/07/19 02:18:36;;;;;;;15.48;8.65;;;;;;;;;;6343817;22;20002;-96
2023/07/19 02:21:08;;;;;;;11.73;7.65;;;;;;;;;;6344809;22;20005;-96
2023/07/19 02:23:37;;;;;;;10.57;7.95;;;;;;;;;;6344153;22;20017;-96
2023/07/19 02:26:13;;;;;;;17.23;8.68;;;;;;;;;;6305693;22;20130;-96
2023/07/19 02:28:42;;;;;;;15.30;8.23;;;;;;;;;;6280792;22;20094;-96
2023/07/19 02:31:08;;;;;;;16.98;8.05;;;;;;;;;;6280691;22;20057;-96
2023/07/19 02:33:40;;;;;;;10.38;7.93;;;;;;;;;;6280848;22;20042;-96
2023/07/19 02:36:18;;;;;;;11.85;7.85;;;;;;;;;;6280998;22;20010;-96
2023/07/19 02:38:52;;;;;;;15.45;8.10;;;;;;;;;;6280967;22;20102;-95
2023/07/19 02:44:35;;;;;;;16.20;8.23;;;;;;;;;;6216451;23;20043;-96
2023/07/19 02:47:01;;;;;;;12.23;7.85;;;;;;;;;;6214450;23;20009;-96
2023/07/19 02:49:27;;;;;;;12.73;6.82;;;;;;;;;;6214591;23;20019;-95
2023/07/19 02:51:53;;;;;;;18.80;8.20;;;;;;;;;;6214782;23;20001;-95
2023/07/19 02:54:25;;;;;;;16.13;9.00;;;;;;;;;;6215923;23;20013;-96
2023/07/19 02:56:53;;;;;;;22.00;8.82;;;;;;;;;;6239958;22;20020;-96
2023/07/19 02:59:23;;;;;;;16.27;8.95;;;;;;;;;;6250024;22;20413;-96
2023/07/19 03:02:02;;;;;;;;;;;;;;;;;;;;;
2023/07/19 03:04:34;;;;;;;11.32;8.25;;;;;;;;;;6276513;22;20090;-96
2023/07/19 03:07:03;;;;;;;14.57;8.73;;;;;;;;;;6249728;22;20433;-96
2023/07/19 03:09:35;;;;;;;14.25;8.60;;;;;;;;;;6249914;22;20003;-96
2023/07/19 03:12:07;;;;;;;16.25;7.97;;;;;;;;;;6250021;22;20356;-95
2023/07/19 03:14:33;;;;;;;16.42;8.70;;;;;;;;;;6250990;22;20000;-96
2023/07/19 03:17:09;;;;;;;11.80;7.95;;;;;;;;;;6251002;22;20015;-95
2023/07/19 03:19:36;;;;;;;13.35;8.40;;;;;;;;;;6250726;22;20010;-96
2023/07/19 03:22:08;;;;;;;14.48;8.85;;;;;;;;;;6331741;22;20308;-96
2023/07/19 03:24:37;;;;;;;14.83;8.27;;;;;;;;;;6346778;22;20015;-96
2023/07/19 03:27:07;;;;;;;14.52;8.07;;;;;;;;;;6354073;22;20232;-96
2023/07/19 03:29:33;;;;;;;13.02;8.20;;;;;;;;;;6371880;22;19986;-96
2023/07/19 03:32:06;;;;;;;13.63;8.32;;;;;;;;;;6353500;22;20015;-94
2023/07/19 03:34:48;;;;;;;;;;;;;;;;;;;;;
2023/07/19 03:40:27;;;;;;;14.40;8.20;;;;;;;;;;6266097;22;20015;-96
2023/07/19 03:48:22;;;;;;;14.52;8.00;;;;;;;;;;6397486;22;20010;-93
2023/07/19 03:51:03;;;;;;;19.05;9.00;;;;;;;;;;6346788;22;20423;-96
2023/07/19 03:53:36;;;;;;;10.70;7.22;;;;;;;;;;6346493;22;20009;-93
2023/07/19 03:56:08;;;;;;;13.43;7.03;;;;;;;;;;6347447;22;19998;-96
2023/07/19 03:58:43;;;;;;;13.93;8.30;;;;;;;;;;6346517;22;20007;-95
2023/07/19 04:01:15;;;;;;;12.20;7.80;;;;;;;;;;6346910;22;20002;-95
2023/07/19 04:03:44;;;;;;;15.73;7.65;;;;;;;;;;6347371;22;20091;-96
2023/07/19 04:06:13;;;;;;;14.57;8.10;;;;;;;;;;6347203;22;20087;-94
2023/07/19 04:08:49;;;;;;;12.20;7.35;;;;;;;;;;6345811;22;20024;-95
2023/07/19 04:11:25;;;;;;;12.88;7.97;;;;;;;;;;6346087;22;20002;-93
2023/07/19 04:14:00;;;;;;;17.02;8.45;;;;;;;;;;6338434;22;19998;-96
2023/07/19 04:16:38;;;;;;;13.93;8.45;;;;;;;;;;6313421;22;20034;-95
2023/07/19 04:19:10;;;;;;;22.05;7.85;;;;;;;;;;6313400;22;20443;-96
2023/07/19 04:21:42;;;;;;;15.10;8.70;;;;;;;;;;6313416;22;20010;-96
2023/07/19 04:24:26;;;;;;;11.75;7.72;;;;;;;;;;6312978;22;20044;-94
2023/07/19 04:26:58;;;;;;;16.98;8.60;;;;;;;;;;6313864;22;20038;-96
2023/07/19 04:32:19;;;;;;;18.10;7.95;;;;;;;;;;6340091;22;20018;-96
2023/07/19 04:35:25;;;;;;;15.57;8.73;;;;;;;;;;6313652;22;20013;-96
2023/07/19 04:38:05;;;;;;;11.30;7.13;;;;;;;;;;6253906;22;20004;-96
2023/07/19 04:40:37;;;;;;;19.08;8.23;;;;;;;;;;6319301;22;20022;-96
2023/07/19 04:43:15;;;;;;;12.68;7.05;;;;;;;;;;6314084;22;20011;-95
2023/07/19 04:45:58;;;;;;;11.57;7.30;;;;;;;;;;6368030;22;19999;-96
2023/07/19 04:48:27;;;;;;;11.43;7.77;;;;;;;;;;6308363;22;20015;-96
2023/07/19 04:51:02;;;;;;;14.60;7.25;;;;;;;;;;6308297;22;20007;-96
2023/07/19 04:53:51;;;;;;;14.15;8.43;;;;;;;;;;6307358;22;20066;-94
2023/07/19 04:56:27;;;;;;;14.15;8.43;;;;;;;;;;6280671;22;20010;-96
2023/07/19 05:02:18;;;;;;;16.55;7.15;;;;;;;;;;6157512;23;20006;-96
2023/07/19 05:05:07;;;;;;;15.88;9.43;;;;;;;;;;6132069;23;20013;-95
2023/07/19 05:07:40;;;;;;;12.13;7.75;;;;;;;;;;6131184;23;20428;-96
2023/07/19 05:10:09;;;;;;;11.35;7.30;;;;;;;;;;6131510;23;20005;-96
2023/07/19 05:12:41;;;;;;;12.05;7.30;;;;;;;;;;6166810;22;20007;-96
2023/07/19 05:15:18;;;;;;;14.73;6.33;;;;;;;;;;6283694;22;20025;-96
2023/07/19 05:17:46;;;;;;;11.60;7.00;;;;;;;;;;6286335;22;20265;-96
2023/07/19 05:20:24;;;;;;;14.82;7.82;;;;;;;;;;6304742;22;20484;-96
2023/07/19 05:22:50;;;;;;;9.93;6.80;;;;;;;;;;6285090;22;20015;-95
2023/07/19 05:25:23;;;;;;;11.95;6.95;;;;;;;;;;6272110;22;20003;-95
2023/07/19 05:27:52;;;;;;;9.95;7.47;;;;;;;;;;6320587;22;20055;-95
2023/07/19 05:30:18;;;;;;;11.98;7.53;;;;;;;;;;6310231;22;20038;-94
2023/07/19 05:32:50;;;;;;;9.23;7.07;;;;;;;;;;6311302;22;20459;-96
2023/07/19 05:35:34;;;;;;;10.97;7.63;;;;;;;;;;6308579;22;19999;-95
2023/07/19 05:37:59;;;;;;;;;;;;;;;;;;6310211;22;20013;-92
2023/07/19 05:40:55;;;;;;;11.68;7.63;;;;;;;;;;6308130;22;19930;-92
2023/07/19 05:43:21;;;;;;;13.13;8.32;;;;;;;;;;6309060;22;20037;-92
2023/07/19 05:45:47;;;;;;;10.88;7.72;;;;;;;;;;6318207;22;20008;-92
2023/07/19 05:48:13;;;;;;;11.27;7.43;;;;;;;;;;6345141;22;20024;-92
2023/07/19 05:50:39;;;;;;;8.75;7.00;;;;;;;;;;6345527;22;20054;-91
2023/07/19 05:53:08;;;;;;;11.98;7.65;;;;;;;;;;6344626;22;20010;-92
2023/07/19 05:58:44;;;;;;;10.32;7.13;;;;;;;;;;6372137;22;20454;-92
2023/07/19 06:04:18;;;;;;;;;;;;;;;;;;6372443;22;20454;-92
2023/07/19 06:06:48;;;;;;;11.10;6.63;;;;;;;;;;6347667;22;20326;-94
2023/07/19 06:12:44;;;;;;;11.88;7.28;;;;;;;;;;6374973;22;20022;-94
2023/07/19 06:15:37;;;;;;;11.65;7.22;;;;;;;;;;6348353;22;20014;-95
2023/07/19 06:18:09;;;;;;;13.13;6.82;;;;;;;;;;6339205;22;19998;-92
2023/07/19 06:20:35;;;;;;;10.65;6.43;;;;;;;;;;6344151;22;20458;-90
2023/07/19 06:23:04;;;;;;;12.90;6.20;;;;;;;;;;6344725;22;20048;-91
2023/07/19 06:25:30;;;;;;;13.15;6.10;;;;;;;;;;6344217;22;20005;-93
2023/07/19 06:27:56;;;;;;;9.98;5.35;;;;;;;;;;6344715;22;20006;-92
2023/07/19 06:30:31;;;;;;;12.27;6.35;;;;;;;;;;6344147;22;20416;-93
2023/07/19 06:33:00;;;;;;;10.25;6.30;;;;;;;;;;6343396;22;20006;-93
2023/07/19 06:35:36;;;;;;;8.60;6.88;;;;;;;;;;6344299;22;20454;-94
2023/07/19 06:38:05;;;;;;;8.60;6.47;;;;;;;;;;6351397;22;20006;-93
2023/07/19 06:40:31;;;;;;;13.73;7.63;;;;;;;;;;6344453;22;19994;-92
2023/07/19 06:43:01;;;;;;;9.40;6.35;;;;;;;;;;6355904;22;20010;-92
2023/07/19 06:45:27;;;;;;;10.75;6.22;;;;;;;;;;6349364;22;20010;-91
2023/07/19 06:47:56;;;;;;;9.00;6.18;;;;;;;;;;6345062;22;20038;-90
2023/07/19 06:50:25;;;;;;;12.65;6.60;;;;;;;;;;6343902;22;20036;-92
2023/07/19 06:56:02;;;;;;;8.85;5.40;;;;;;;;;;6371297;22;20010;-90
2023/07/19 06:58:31;;;;;;;6.03;4.57;;;;;;;;;;6343988;22;20423;-91
2023/07/19 07:01:00;;;;;;;9.82;5.60;;;;;;;;;;6346366;22;20029;-93
2023/07/19 07:03:28;;;;;;;9.63;5.32;;;;;;;;;;6345869;22;20067;-95
2023/07/19 07:06:04;;;;;;;9.50;5.00;;;;;;;;;;6345557;22;19999;-92
2023/07/19 07:08:30;;;;;;;9.02;5.00;;;;;;;;;;6345796;22;20006;-93
2023/07/19 07:10:56;;;;;;;9.55;5.10;;;;;;;;;;6345634;22;20332;-94
2023/07/19 07:13:22;;;;;;;9.07;4.45;;;;;;;;;;6345528;22;20101;-94
2023/07/19 07:15:54;;;;;;;8.95;4.78;;;;;;;;;;6346562;22;20056;-93
2023/07/19 07:18:26;;;;;;;8.25;4.18;;;;;;;;;;6346334;22;20419;-96
2023/07/19 07:20:53;;;;;;;6.55;4.07;;;;;;;;;;6297842;22;19998;-94
2023/07/19 07:23:19;;;;;;;9.02;4.72;;;;;;;;;;6346379;22;20010;-94
2023/07/19 07:26:14;;;;;;;9.02;4.07;;;;;;;;;;6346372;22;20071;-93
2023/07/19 07:28:40;;;;;;;7.70;4.28;;;;;;;;;;6302712;22;20488;-95
2023/07/19 07:31:08;;;;;;;8.38;4.50;;;;;;;;;;6346269;22;20002;-94
2023/07/19 07:33:45;;;;;;;9.55;4.20;;;;;;;;;;6347713;22;20097;-93
2023/07/19 07:36:11;;;;;;;13.07;4.40;;;;;;;;;;6375837;22;19998;-96
2023/07/19 07:38:43;;;;;;;9.48;3.95;;;;;;;;;;6349400;22;20087;-94
2023/07/19 07:41:12;;;;;;;8.38;4.32;;;;;;;;;;6348388;22;20002;-93
2023/07/19 07:44:03;;;;;;;12.88;4.22;;;;;;;;;;6347800;22;20007;-94
2023/07/19 07:46:39;;;;;;;11.70;4.25;;;;;;;;;;6349226;22;19998;-92
2023/07/19 07:49:08;;;;;;;9.57;4.15;;;;;;;;;;6361847;22;20065;-93
2023/07/19 07:51:35;;;;;;;8.88;4.00;;;;;;;;;;6355282;22;20081;-94
2023/07/19 07:54:01;;;;;;;5.70;3.90;;;;;;;;;;6348297;22;20015;-92
2023/07/19 07:56:27;;;;;;;8.40;4.18;;;;;;;;;;6346114;22;20427;-92
2023/07/19 07:58:53;;;;;;;6.57;4.00;;;;;;;;;;6347080;22;20007;-94
2023/07/19 08:01:22;;;;;;;8.15;3.83;;;;;;;;;;6352878;22;20002;-93
2023/07/19 08:03:48;;;;;;;6.78;3.83;;;;;;;;;;6349700;22;20055;-92
2023/07/19 09:43:19;;;;;;;5.78;3.10;;;;;;;;;;6368727;22;20060;-93
2023/07/19 09:46:00;;;;;;;5.78;2.97;;;;;;;;;;6332201;22;20042;-91
2023/07/19 09:54:12;;;;;;;6.65;3.20;;;;;;;;;;6387355;22;20025;-93
2023/07/19 09:56:45;;;;;;;8.50;3.45;;;;;;;;;;6363029;22;20030;-94
2023/07/19 09:59:38;;;;;;;9.38;3.20;;;;;;;;;;6350520;22;20031;-94
2023/07/19 10:02:08;;;;;;;5.60;3.47;;;;;;;;;;6344693;22;20041;-92
2023/07/19 10:04:38;;;;;;;7.70;3.65;;;;;;;;;;6321925;22;20013;-94
2023/07/19 10:07:05;;;;;;;4.60;2.97;;;;;;;;;;6350049;22;20010;-94
2023/07/19 10:09:45;;;;;;;8.77;3.65;;;;;;;;;;6350730;22;20008;-92
2023/07/19 10:18:11;;;;;;;4.82;3.28;;;;;;;;;;6384433;22;20041;-94
2023/07/19 10:21:00;;;;;;;5.72;3.50;;;;;;;;;;6341366;22;20081;-94
2023/07/19 10:23:30;;;;;;;6.57;3.22;;;;;;;;;;6353939;22;20002;-96
2023/07/19 10:29:30;;;;;;;8.07;3.17;;;;;;;;;;6372854;22;20113;-94
2023/07/19 10:32:24;;;;;;;5.90;3.75;;;;;;;;;;6343868;22;20002;-95
2023/07/19 10:35:02;;;;;;;7.22;3.28;;;;;;;;;;6343593;22;20466;-91
2023/07/19 10:37:33;;;;;;;7.05;2.95;;;;;;;;;;6383391;22;20003;-92
2023/07/19 10:43:05;;;;;;;9.82;3.65;;;;;;;;;;6373748;22;20006;-94
2023/07/19 10:45:33;;;;;;;6.63;3.47;;;;;;;;;;6346161;22;20010;-96
2023/07/19 10:48:00;;;;;;;9.07;3.45;;;;;;;;;;6348963;22;20056;-93
2023/07/19 10:50:29;;;;;;;7.57;2.70;;;;;;;;;;6348902;22;20006;-95
2023/07/19 10:52:55;;;;;;;6.85;3.00;;;;;;;;;;6346861;22;20015;-92
2023/07/19 10:55:21;;;;;;;5.40;3.15;;;;;;;;;;6345235;22;20010;-93
2023/07/19 10:57:47;;;;;;;9.65;3.47;;;;;;;;;;6346568;22;20037;-93
2023/07/19 11:00:14;;;;;;;6.88;3.22;;;;;;;;;;6344008;22;20110;-94
2023/07/19 11:02:40;;;;;;;7.90;3.30;;;;;;;;;;6345072;22;20463;-95
2023/07/19 11:05:13;;;;;;;7.25;3.15;;;;;;;;;;6344308;22;20002;-93
2023/07/19 11:07:42;;;;;;;;;;;;;;;;;;6344413;22;20006;-92
2023/07/19 11:10:11;;;;;;;6.78;3.33;;;;;;;;;;6343962;22;19898;-93
2023/07/19 11:12:49;;;;;;;9.00;2.95;;;;;;;;;;6343652;22;20009;-92
2023/07/19 11:18:47;;;;;;;5.30;3.20;;;;;;;;;;6246218;23;20125;-93
2023/07/19 11:21:26;;;;;;;5.43;2.97;;;;;;;;;;6219885;23;20027;-91
2023/07/19 11:23:53;;;;;;;7.00;3.33;;;;;;;;;;6221104;23;20027;-94
2023/07/19 11:26:19;;;;;;;4.40;2.88;;;;;;;;;;6223757;23;20004;-93
2023/07/19 11:28:46;;;;;;;5.60;2.80;;;;;;;;;;6263054;22;20063;-93
2023/07/19 11:31:50;;;;;;;8.40;3.10;;;;;;;;;;6346587;22;20002;-93
2023/07/19 11:34:19;;;;;;;6.03;3.10;;;;;;;;;;6340404;22;20015;-92
2023/07/19 11:36:54;;;;;;;5.55;3.10;;;;;;;;;;6338975;22;20003;-96
2023/07/19 11:39:30;;;;;;;7.35;3.00;;;;;;;;;;6339238;22;20007;-92
2023/07/19 11:41:59;;;;;;;6.13;2.70;;;;;;;;;;6338493;22;20014;-94
2023/07/19 11:44:25;;;;;;;4.75;2.75;;;;;;;;;;6339090;22;19999;-90
2023/07/19 11:47:12;;;;;;;4.35;2.67;;;;;;;;;;6340181;22;20006;-95
2023/07/19 11:49:41;;;;;;;8.50;3.08;;;;;;;;;;6341763;22;20090;-96
2023/07/19 11:52:13;;;;;;;5.47;2.78;;;;;;;;;;6341358;22;20006;-96
2023/07/19 11:58:13;;;;;;;4.35;2.67;;;;;;;;;;6328132;22;20006;-95
2023/07/19 12:03:30;;;;;;;7.13;2.70;;;;;;;;;;6376657;22;20079;-96
2023/07/19 12:05:57;;;;;;;8.20;2.58;;;;;;;;;;6351058;22;20064;-93
2023/07/19 12:11:30;;;;;;;4.10;2.47;;;;;;;;;;6373861;22;20037;-94
2023/07/19 12:14:25;;;;;;;5.60;2.70;;;;;;;;;;6319523;22;20023;-94
2023/07/19 12:17:05;;;;;;;4.25;2.42;;;;;;;;;;6326564;22;20022;-95
2023/07/19 12:19:31;;;;;;;5.85;2.40;;;;;;;;;;6350835;22;20006;-94
2023/07/19 12:22:00;;;;;;;5.70;2.08;;;;;;;;;;6327168;22;19998;-94
2023/07/19 12:27:11;;;;;;;8.10;2.65;;;;;;;;;;6378521;22;20079;-94
2023/07/19 12:29:37;;;;;;;6.40;2.67;;;;;;;;;;6354337;22;20002;-94
2023/07/19 12:32:09;;;;;;;4.18;2.45;;;;;;;;;;6360924;22;20006;-93
2023/07/19 12:37:39;;;;;;;5.30;2.40;;;;;;;;;;6375170;22;20033;-93
2023/07/19 12:42:44;;;;;;;7.88;2.55;;;;;;;;;;6390807;22;20006;-94
2023/07/19 12:45:13;;;;;;;4.47;2.63;;;;;;;;;;6357033;22;20006;-95
2023/07/19 12:47:40;;;;;;;6.07;2.47;;;;;;;;;;6353717;22;20006;-94
2023/07/19 12:50:09;;;;;;;5.22;2.33;;;;;;;;;;6353033;22;20007;-95
2023/07/19 12:52:38;;;;;;;4.80;2.50;;;;;;;;;;6350725;22;20011;-95
2023/07/19 12:55:11;;;;;;;7.20;2.83;;;;;;;;;;6343839;22;20023;-96
2023/07/19 13:00:28;;;;;;;11.57;3.03;;;;;;;;;;6375984;22;20095;-96
2023/07/19 13:03:01;;;;;;;5.47;3.15;;;;;;;;;;6354119;22;20063;-94
2023/07/19 13:05:36;;;;;;;7.30;3.10;;;;;;;;;;6357245;22;20002;-96
2023/07/19 13:08:05;;;;;;;5.13;2.80;;;;;;;;;;6358681;22;20011;-94
2023/07/19 13:10:34;;;;;;;6.88;3.08;;;;;;;;;;6338354;22;20030;-95
2023/07/19 13:13:04;;;;;;;6.43;3.30;;;;;;;;;;6345604;22;20026;-94
2023/07/19 13:15:39;;;;;;;6.78;3.67;;;;;;;;;;6349028;22;20023;-95
2023/07/19 13:18:05;;;;;;;14.70;4.10;;;;;;;;;;6287238;22;20009;-94
2023/07/19 13:20:43;;;;;;;10.40;3.60;;;;;;;;;;6291059;22;20114;-96
2023/07/19 13:23:21;;;;;;;8.73;3.65;;;;;;;;;;6308980;22;20034;-95
2023/07/19 13:26:22;;;;;;;7.95;3.83;;;;;;;;;;6358137;22;20010;-96
2023/07/19 13:28:53;;;;;;;10.63;3.65;;;;;;;;;;6357350;22;20013;-94
2023/07/19 13:31:28;;;;;;;10.45;4.05;;;;;;;;;;6337764;22;20023;-96
2023/07/19 13:36:41;;;;;;;8.23;3.85;;;;;;;;;;6354881;22;20025;-95
2023/07/19 13:39:22;;;;;;;9.65;3.90;;;;;;;;;;6352868;22;20006;-95
2023/07/19 13:41:54;;;;;;;7.88;3.92;;;;;;;;;;6354257;22;20003;-96
2023/07/19 13:44:24;;;;;;;8.23;3.75;;;;;;;;;;6348741;22;20343;-96
2023/07/19 13:46:53;;;;;;;15.98;4.18;;;;;;;;;;6325889;22;20601;-94
2023/07/19 13:52:06;;;;;;;10.63;3.72;;;;;;;;;;6347592;22;20017;-95
2023/07/19 13:55:03;;;;;;;9.85;3.50;;;;;;;;;;6353639;22;20015;-96
2023/07/19 14:03:25;;;;;;;12.30;3.70;;;;;;;;;;6374052;22;20463;-94
2023/07/19 14:06:00;;;;;;;8.95;4.07;;;;;;;;;;6364661;22;20002;-96
2023/07/19 14:08:33;;;;;;;6.43;3.47;;;;;;;;;;6358811;22;20097;-94
2023/07/19 14:11:05;;;;;;;;;;;;;;;;;;6338644;22;20019;-96
2023/07/19 14:13:38;;;;;;;12.32;3.50;;;;;;;;;;6320946;22;19915;-96
2023/07/19 14:16:10;;;;;;;10.95;3.50;;;;;;;;;;6319977;22;20014;-95
2023/07/19 14:18:36;;;;;;;9.32;3.53;;;;;;;;;;6347833;22;20003;-94
2023/07/19 14:21:02;;;;;;;8.20;3.88;;;;;;;;;;6347721;22;20005;-95
2023/07/19 14:27:02;;;;;;;6.38;3.40;;;;;;;;;;6350103;22;20033;-94
2023/07/19 14:29:31;;;;;;;6.55;3.05;;;;;;;;;;6347283;22;20010;-94
2023/07/19 14:32:20;;;;;;;6.13;3.00;;;;;;;;;;6342838;22;20003;-96
2023/07/19 14:35:01;;;;;;;7.47;3.00;;;;;;;;;;6345375;22;19994;-95
2023/07/19 14:37:39;;;;;;;5.97;2.83;;;;;;;;;;6348676;22;20003;-96
2023/07/19 14:46:16;;;;;;;4.80;2.83;;;;;;;;;;6352136;22;19999;-94
2023/07/19 14:48:42;;;;;;;6.38;2.67;;;;;;;;;;6347429;22;20428;-95
2023/07/19 14:51:09;;;;;;;6.72;2.88;;;;;;;;;;6347667;22;19995;-94
2023/07/19 14:53:35;;;;;;;6.38;3.28;;;;;;;;;;6344620;22;20015;-95
2023/07/19 14:56:01;;;;;;;4.95;2.85;;;;;;;;;;6343378;22;20475;-96
2023/07/19 14:58:27;;;;;;;7.63;3.20;;;;;;;;;;6344816;22;20447;-94
2023/07/19 15:00:53;;;;;;;7.57;3.10;;;;;;;;;;6348968;22;19998;-95
2023/07/19 15:09:26;;;;;;;6.22;2.95;;;;;;;;;;6373254;22;20056;-96
2023/07/19 15:15:10;;;;;;;8.10;3.58;;;;;;;;;;6364007;22;20053;-93
2023/07/19 15:18:12;;;;;;;6.68;3.33;;;;;;;;;;6354673;22;20009;-96
2023/07/19 15:21:02;;;;;;;9.80;4.00;;;;;;;;;;6234681;22;20012;-96
2023/07/19 15:23:32;;;;;;;6.47;3.22;;;;;;;;;;6350690;22;20030;-93
2023/07/19 15:31:57;;;;;;;8.63;3.60;;;;;;;;;;6381155;22;20017;-92
2023/07/19 15:34:23;;;;;;;5.65;3.55;;;;;;;;;;6367212;22;20047;31
2023/07/19 15:42:10;;;;;;;7.88;3.40;;;;;;;;;;6378699;22;20026;-96
2023/07/19 15:47:49;;;;;;;7.72;3.83;;;;;;;;;;6386588;22;20032;-96
2023/07/19 15:50:21;;;;;;;6.32;3.42;;;;;;;;;;6361609;22;20069;-96
2023/07/19 15:53:00;;;;;;;7.85;3.90;;;;;;;;;;6365804;22;20006;-96
2023/07/19 15:55:26;;;;;;;7.82;3.78;;;;;;;;;;6358835;22;20007;-95
2023/07/19 15:57:56;;;;;;;8.77;3.78;;;;;;;;;;6352568;22;20077;-95
2023/07/19 16:00:31;;;;;;;9.27;3.90;;;;;;;;;;6351201;22;20006;-95
2023/07/19 16:03:01;;;;;;;7.10;3.60;;;;;;;;;;6352773;22;19999;-94
2023/07/19 16:05:30;;;;;;;7.70;4.10;;;;;;;;;;6342831;22;20029;-95
2023/07/19 16:08:08;;;;;;;7.28;3.90;;;;;;;;;;6252011;23;20024;-96
2023/07/19 16:10:40;;;;;;;6.70;4.03;;;;;;;;;;6290349;22;20440;-94
2023/07/19 16:13:09;;;;;;;8.65;3.95;;;;;;;;;;6343066;22;20431;-95
2023/07/19 16:15:39;;;;;;;8.82;3.85;;;;;;;;;;6347035;22;20423;-95
2023/07/19 16:18:12;;;;;;;5.85;3.83;;;;;;;;;;6350503;22;20030;-95
2023/07/19 16:20:41;;;;;;;8.32;4.00;;;;;;;;;;6346085;22;20010;-96
2023/07/19 16:23:10;;;;;;;7.78;4.00;;;;;;;;;;6347178;22;20006;-95
2023/07/19 16:25:39;;;;;;;9.43;4.03;;;;;;;;;;6345164;22;20005;-95
2023/07/19 16:28:20;;;;;;;9.18;4.57;;;;;;;;;;6342489;22;20011;-96
2023/07/19 16:30:49;;;;;;;10.30;4.22;;;;;;;;;;6346618;22;20007;-95
2023/07/19 16:33:25;;;;;;;9.48;3.80;;;;;;;;;;6343248;22;20015;-96
2023/07/19 16:35:51;;;;;;;7.80;3.80;;;;;;;;;;6340619;22;20424;-95
2023/07/19 16:38:36;;;;;;;7.82;4.10;;;;;;;;;;6347074;22;20005;-96
2023/07/19 16:41:05;;;;;;;11.20;4.25;;;;;;;;;;6346758;22;19994;-96
2023/07/19 16:43:31;;;;;;;8.25;3.80;;;;;;;;;;6351055;22;20031;-96
2023/07/19 16:51:36;;;;;;;9.70;4.32;;;;;;;;;;6382992;22;20018;-96
2023/07/19 16:57:17;;;;;;;11.73;4.20;;;;;;;;;;6379805;22;20029;-96
2023/07/19 17:06:21;;;;;;;13.60;4.75;;;;;;;;;;6391793;22;20037;-95
2023/07/19 17:20:46;;;;;;;19.13;4.65;;;;;;;;;;6381090;22;20021;-95
2023/07/19 17:26:31;;;;;;;42.85;6.00;;;;;;;;;;6394624;22;20097;-96
2023/07/19 17:37:01;;;;;;;9.48;3.40;;;;;;;;;;6353999;22;20026;-96
2023/07/19 17:44:55;;;;;;;6.87;2.63;;;;;;;;;;6339894;22;20108;-91
2023/07/19 17:52:47;;;;;;;51.30;4.28;;;;;;;;;;6381763;22;20048;-95
2023/07/19 17:55:34;;;;;;;19.98;4.15;;;;;;;;;;6336491;22;20106;-96
2023/07/19 17:58:11;;;;;;;15.30;4.68;;;;;;;;;;6353845;22;19998;-96
2023/07/19 18:00:37;;;;;;;25.70;6.10;;;;;;;;;;6357652;22;20055;-95
2023/07/19 18:03:09;;;;;;;10.55;5.03;;;;;;;;;;6352119;22;20151;-95
2023/07/19 18:05:36;;;;;;;7.60;4.72;;;;;;;;;;6321851;22;20011;-96
2023/07/19 18:19:26;;;;;;;7.72;3.65;;;;;;;;;;6373657;22;20030;-96
2023/07/19 18:27:16;;;;;;;11.30;3.17;;;;;;;;;;6313670;22;20275;-93
2023/07/19 18:32:47;;;;;;;7.93;3.35;;;;;;;;;;6379951;22;20003;-93
2023/07/19 18:35:17;;;;;;;6.72;3.80;;;;;;;;;;6327836;22;20022;-95
2023/07/19 18:37:55;;;;;;;5.78;3.60;;;;;;;;;;6317219;22;19999;-95
2023/07/19 18:40:21;;;;;;;6.45;3.72;;;;;;;;;;6316403;22;20003;-94
2023/07/19 18:42:53;;;;;;;5.65;3.72;;;;;;;;;;6316506;22;20003;-96
2023/07/19 18:45:23;;;;;;;6.20;3.60;;;;;;;;;;6319702;22;20010;-95
2023/07/19 18:50:44;;;;;;;6.82;3.70;;;;;;;;;;6388538;22;20017;-96
2023/07/19 18:59:23;;;;;;;6.88;3.83;;;;;;;;;;6376911;22;20033;-96
2023/07/19 19:01:54;;;;;;;7.13;3.80;;;;;;;;;;6360785;22;20037;-95
2023/07/19 19:04:33;;;;;;;6.93;3.72;;;;;;;;;;6360874;22;20008;-95
2023/07/19 19:07:02;;;;;;;5.35;3.50;;;;;;;;;;6357727;22;20411;-96
2023/07/19 19:09:36;;;;;;;6.95;3.80;;;;;;;;;;6357386;22;20006;-94
2023/07/19 19:12:05;;;;;;;5.80;3.80;;;;;;;;;;6362603;22;19998;-96
2023/07/19 19:20:32;;;;;;;8.15;4.05;;;;;;;;;;6382378;22;20013;-94
2023/07/19 19:23:08;;;;;;;6.90;3.40;;;;;;;;;;6356724;22;20048;-94
2023/07/19 19:25:43;;;;;;;6.25;3.83;;;;;;;;;;6360691;22;19986;-96
2023/07/19 19:28:14;;;;;;;5.97;3.70;;;;;;;;;;6354240;22;20018;-94
2023/07/19 19:30:48;;;;;;;13.45;10.43;;;;;;;;;;6374195;22;20037;-95
2023/07/19 19:33:23;;;;;;;7.13;3.85;;;;;;;;;;6351619;22;20033;-96
2023/07/19 19:35:55;;;;;;;6.95;3.55;;;;;;;;;;6347324;22;20417;-94
2023/07/19 19:41:22;;;;;;;5.80;3.67;;;;;;;;;;6372325;22;20080;-95
2023/07/19 19:44:00;;;;;;;4.65;2.80;;;;;;;;;;6358811;22;20010;-96
2023/07/19 19:46:53;;;;;;;4.15;2.88;;;;;;;;;;6355198;22;19999;-95
2023/07/19 19:49:19;;;;;;;4.57;2.90;;;;;;;;;;6334381;22;20038;-94
2023/07/19 19:51:54;;;;;;;4.55;2.90;;;;;;;;;;6320405;22;20003;-95
2023/07/19 19:56:59;;;;;;;4.40;2.47;;;;;;;;;;6381484;22;20041;-94
2023/07/19 20:02:13;;;;;;;4.13;2.80;;;;;;;;;;6387585;22;20022;-94
2023/07/19 20:04:45;;;;;;;4.38;2.63;;;;;;;;;;6331101;22;20420;-96
2023/07/19 20:07:18;;;;;;;5.07;2.80;;;;;;;;;;6343037;22;20015;-95
2023/07/19 20:09:50;;;;;;;4.35;2.70;;;;;;;;;;6324145;22;20498;-96
2023/07/19 20:12:23;;;;;;;5.77;3.10;;;;;;;;;;6321995;22;20007;-95
2023/07/19 20:14:55;;;;;;;4.97;3.08;;;;;;;;;;6319467;22;20011;-95
2023/07/19 20:17:21;;;;;;;4.43;3.08;;;;;;;;;;6318760;22;20007;-96
2023/07/19 20:19:54;;;;;;;4.57;2.80;;;;;;;;;;6319708;22;20025;-95
2023/07/19 20:22:24;;;;;;;5.15;2.72;;;;;;;;;;6317364;22;20056;-95
2023/07/19 20:24:55;;;;;;;5.28;2.88;;;;;;;;;;6320264;22;20023;-95
2023/07/19 20:27:24;;;;;;;5.15;2.80;;;;;;;;;;6287041;22;20027;-96